Jacksonville, IL

10:08 AM CDT on April 23, 2017 (GMT -0500)
Jacksonville Municipal

Weather History for KIJX - January, 2013

Change the Weather History Date:

Tuesday, January 29, 2013

  Actual Average (KSPI) Record (KSPI)
Temperature  
Mean Temperature 60 °F -  
Max Temperature 68 °F 34 °F 64 °F (2008)
Min Temperature 53 °F 17 °F -11 °F (1966)
Degree Days  
Heating Degree Days 4    
Growing Degree Days 10 (Base 50)    
Moisture  
Dew Point 58 °F    
Average Humidity 91    
Maximum Humidity 98    
Minimum Humidity 78    
Precipitation  
Precipitation 0.99 in - - ()
Sea Level Pressure  
Sea Level Pressure 29.62 in    
Wind  
Wind Speed 14 mph (SSE)    
Max Wind Speed 24 mph    
Max Gust Speed 34 mph    
Visibility 8 miles    
Events Rain , Thunderstorm    
Averages and records for this station are not official NWS values.
T = Trace of Precipitation, MM = Missing Value Source: NWS Daily Summary

Daily Weather History Graph

Daily Weather History Graph

Search for Another Location

Airport or City:

Trip Planner

Search our weather history database for the weather conditions in past years. The results will help you decide how hot, cold, wet, or windy it might be!

Date:

Astronomy

Jan. 29, 2013 Rise Set
Actual Time 7:11 AM CST 5:17 PM CST
Civil Twilight 6:42 AM CST 5:46 PM CST
Nautical Twilight 6:10 AM CST 6:18 PM CST
Astronomical Twilight 5:38 AM CST 6:50 PM CST
Moon 8:13 PM CST (1/29) 8:08 AM CST (1/29)
Length of Visible Light 11h 03m
Length of Day
10h 06m
Waning Gibbous, 93% of the Moon is Illuminated
Jan 29
Waning Gibbous
Feb 3
Last Quarter
Feb 10
New
Feb 17
First Quarter
Feb 25
Full

Hourly Weather History & Observations

Time (CST) Temp. Dew Point Humidity Pressure Visibility Wind Dir Wind Speed Gust Speed Precip Events Conditions
12:15 AM 62.1 °F 59.2 °F 90% 29.80 in 7.0 mi South 16.1 mph 26.5 mph N/A   Clear
12:35 AM 62.1 °F 59.2 °F 90% 29.80 in 7.0 mi South 16.1 mph 25.3 mph N/A   Clear
12:55 AM 61.7 °F 59.0 °F 91% 29.79 in 7.0 mi South 17.3 mph 23.0 mph N/A   Clear
1:15 AM 61.3 °F 59.0 °F 92% 29.78 in 7.0 mi South 13.8 mph 21.9 mph N/A   Clear
1:35 AM 61.0 °F 59.0 °F 93% 29.78 in 7.0 mi South 13.8 mph - N/A   Clear
1:55 AM 61.0 °F 59.2 °F 94% 29.77 in 7.0 mi South 13.8 mph - N/A   Clear
2:15 AM 61.0 °F 59.2 °F 94% 29.77 in 7.0 mi South 13.8 mph - N/A   Clear
2:35 AM 60.8 °F 59.0 °F 94% 29.77 in 7.0 mi South 16.1 mph 20.7 mph N/A   Clear
2:55 AM 60.8 °F 59.0 °F 94% 29.76 in 7.0 mi South 17.3 mph - N/A   Scattered Clouds
3:15 AM 60.8 °F 59.0 °F 94% 29.75 in 7.0 mi South 15.0 mph 23.0 mph N/A   Clear
3:35 AM 61.0 °F 59.0 °F 93% 29.75 in 7.0 mi South 13.8 mph 20.7 mph N/A   Clear
3:55 AM 61.0 °F 59.0 °F 93% 29.75 in 7.0 mi South 13.8 mph - N/A   Scattered Clouds
4:15 AM 61.2 °F 58.8 °F 92% 29.73 in 10.0 mi South 13.8 mph 17.3 mph N/A   Scattered Clouds
4:35 AM 61.3 °F 58.6 °F 91% 29.73 in 10.0 mi South 15.0 mph 18.4 mph N/A   Clear
4:55 AM 61.9 °F 59.0 °F 90% 29.72 in 10.0 mi South 15.0 mph - N/A   Clear
5:15 AM 62.4 °F 59.0 °F 89% 29.72 in 10.0 mi South 15.0 mph 24.2 mph N/A   Scattered Clouds
5:35 AM 62.8 °F 59.2 °F 88% 29.73 in 10.0 mi South 12.7 mph 17.3 mph N/A   Mostly Cloudy
5:55 AM 63.0 °F 59.2 °F 87% 29.74 in 10.0 mi SSW 13.8 mph - N/A   Overcast
6:15 AM 62.8 °F 59.7 °F 90% 29.73 in 10.0 mi SSW 15.0 mph - N/A Rain Light Rain
6:35 AM 63.1 °F 59.5 °F 88% 29.72 in 10.0 mi South 12.7 mph - N/A Rain Light Rain
6:55 AM 61.9 °F 59.2 °F 91% 29.72 in 7.0 mi South 10.4 mph - N/A   Mostly Cloudy
7:15 AM 61.5 °F 59.0 °F 91% 29.72 in 7.0 mi South 12.7 mph 17.3 mph N/A   Scattered Clouds
7:35 AM 61.7 °F 59.0 °F 91% 29.71 in 7.0 mi South 11.5 mph - N/A   Scattered Clouds
7:55 AM 61.5 °F 59.0 °F 91% 29.71 in 7.0 mi South 13.8 mph 18.4 mph N/A   Clear
8:15 AM 61.9 °F 59.4 °F 91% 29.70 in 7.0 mi South 12.7 mph - N/A   Clear
8:35 AM 62.4 °F 59.7 °F 91% 29.69 in 7.0 mi South 13.8 mph - N/A   Clear
8:55 AM 62.8 °F 59.9 °F 90% 29.69 in 7.0 mi South 12.7 mph 20.7 mph N/A   Clear
9:15 AM 63.5 °F 60.1 °F 89% 29.69 in 7.0 mi South 15.0 mph - N/A   Clear
9:35 AM 64.0 °F 60.4 °F 88% 29.68 in 10.0 mi South 18.4 mph 23.0 mph N/A   Clear
9:55 AM 64.8 °F 60.8 °F 87% 29.68 in 10.0 mi South 16.1 mph 20.7 mph N/A   Clear
10:15 AM 65.3 °F 61.0 °F 86% 29.68 in 10.0 mi South 16.1 mph 23.0 mph N/A   Clear
10:35 AM 65.5 °F 61.0 °F 85% 29.67 in 10.0 mi South 15.0 mph 20.7 mph N/A   Scattered Clouds
10:55 AM 66.0 °F 61.0 °F 84% 29.65 in 10.0 mi South 12.7 mph 17.3 mph N/A   Scattered Clouds
11:15 AM 66.4 °F 60.8 °F 82% 29.65 in 10.0 mi South 17.3 mph 25.3 mph N/A   Mostly Cloudy
11:35 AM 67.3 °F 61.2 °F 81% 29.63 in 10.0 mi South 18.4 mph 23.0 mph N/A   Scattered Clouds
11:55 AM 67.8 °F 61.0 °F 79% 29.62 in 10.0 mi South 20.7 mph 28.8 mph N/A   Scattered Clouds
12:15 PM 68.0 °F 60.8 °F 78% 29.60 in 10.0 mi South 17.3 mph 25.3 mph N/A   Scattered Clouds
12:35 PM 67.3 °F 60.6 °F 79% 29.58 in 10.0 mi South 17.3 mph 25.3 mph N/A   Mostly Cloudy
12:55 PM 67.5 °F 60.6 °F 79% 29.57 in 10.0 mi South 18.4 mph 25.3 mph N/A   Mostly Cloudy
1:15 PM 67.5 °F 60.8 °F 79% 29.55 in 10.0 mi South 17.3 mph 28.8 mph N/A   Mostly Cloudy
1:35 PM 67.6 °F 60.8 °F 79% 29.52 in 10.0 mi SSE 18.4 mph 32.2 mph N/A   Scattered Clouds
1:55 PM 66.6 °F 60.8 °F 82% 29.52 in 10.0 mi South 24.2 mph 29.9 mph N/A   Mostly Cloudy
2:15 PM 65.5 °F 60.8 °F 85% 29.50 in 10.0 mi SSE 20.7 mph 28.8 mph N/A   Overcast
2:35 PM 65.3 °F 60.8 °F 85% 29.49 in 10.0 mi SSE 16.1 mph 24.2 mph N/A   Overcast
2:55 PM 65.3 °F 60.4 °F 84% 29.49 in 10.0 mi SSE 17.3 mph 26.5 mph N/A   Overcast
3:15 PM 65.3 °F 60.3 °F 84% 29.47 in 10.0 mi SSE 15.0 mph 23.0 mph N/A   Mostly Cloudy
3:35 PM 58.5 °F 55.4 °F 90% 29.51 in 4.0 mi NW 20.7 mph 34.5 mph 0.04 in Rain , Thunderstorm Rain
3:55 PM 57.4 °F 56.1 °F 96% 29.53 in 5.0 mi WNW 15.0 mph - 0.15 in Rain Heavy Rain
4:15 PM 57.2 °F 55.9 °F 96% 29.52 in 5.0 mi WNW 11.5 mph - 0.09 in Rain , Thunderstorm Thunderstorms and Rain
4:35 PM 57.2 °F 55.9 °F 96% 29.54 in 5.0 mi WNW 9.2 mph - 0.19 in Rain , Thunderstorm Heavy Thunderstorms and Rain
4:55 PM 57.2 °F 56.3 °F 97% 29.54 in 5.0 mi NW 11.5 mph - 0.26 in Rain , Thunderstorm Heavy Thunderstorms and Rain
5:15 PM 57.0 °F 56.1 °F 97% 29.52 in 7.0 mi NNW 10.4 mph - 0.03 in Rain Rain
5:35 PM 56.8 °F 55.9 °F 97% 29.54 in 7.0 mi NNW 5.8 mph - 0.09 in Rain Heavy Rain
5:55 PM 56.5 °F 55.6 °F 97% 29.53 in 7.0 mi NNW 4.6 mph - 0.15 in Rain Rain
6:15 PM 56.3 °F 55.4 °F 97% 29.53 in 10.0 mi NNW 4.6 mph - 0.02 in Rain Rain
6:35 PM 56.3 °F 55.4 °F 97% 29.51 in 7.0 mi NNE 5.8 mph - 0.05 in Rain Rain
6:55 PM 55.8 °F 54.7 °F 96% 29.50 in 10.0 mi ENE 6.9 mph - 0.07 in Rain Light Rain
7:15 PM 55.4 °F 54.5 °F 97% 29.51 in 7.0 mi East 3.5 mph - 0.02 in Rain Rain
7:35 PM 54.9 °F 54.0 °F 97% 29.49 in 7.0 mi NE 4.6 mph - 0.06 in Rain Rain
7:55 PM 54.9 °F 54.0 °F 97% 29.51 in 5.0 mi SE 4.6 mph - 0.08 in Rain Rain
8:15 PM 55.0 °F 54.1 °F 97% 29.52 in 7.0 mi Calm Calm - 0.02 in Rain , Thunderstorm Rain
8:35 PM 55.0 °F 54.5 °F 98% 29.52 in 5.0 mi Calm Calm - 0.06 in Rain Rain
8:55 PM 54.9 °F 54.1 °F 97% 29.53 in 5.0 mi Calm Calm - 0.11 in Rain Rain
9:15 PM 54.5 °F 53.8 °F 97% 29.53 in 5.0 mi SE 3.5 mph - 0.04 in Rain Rain
9:35 PM 54.5 °F 53.8 °F 97% 29.51 in 1.8 mi ESE 4.6 mph - 0.07 in Rain Rain
9:55 PM 54.5 °F 53.8 °F 97% 29.50 in 5.0 mi SE 5.8 mph - 0.10 in Rain Rain
10:15 PM 54.0 °F 53.2 °F 97% 29.47 in 3.0 mi SE 6.9 mph - 0.02 in Rain Light Rain
10:35 PM 54.0 °F 53.2 °F 97% 29.47 in 5.0 mi SSE 3.5 mph - 0.02 in Rain Rain
10:55 PM 53.6 °F 52.9 °F 97% 29.45 in 7.0 mi SE 6.9 mph - 0.04 in Rain Rain
11:15 PM 53.6 °F 52.9 °F 97% 29.44 in 10.0 mi SE 8.1 mph - 0.01 in Rain Light Rain
11:35 PM 53.6 °F 52.9 °F 97% 29.43 in 10.0 mi SE 6.9 mph - 0.02 in Rain Light Rain
11:55 PM 53.1 °F 52.3 °F 97% 29.41 in 10.0 mi SE 8.1 mph - 0.03 in Rain Light Rain